Time;durP1;ratioP1;P1;durP2;ratioP2;P2;SDS_P1;SDS_P2;PMS_P1;PMS_P2;Temp;Humidity;BMP_temperature;BMP_pressure;BME280_temperature;BME280_humidity;BME280_pressure;Samples;Min_cycle;Max_cycle;Signal;HPM_P1;HPM_P2
2023/01/02 00:04:48;;;;;;;2.00;1.60;;;;;;;13.38;100.00;98383.69;15295845;19;20092;-80
2023/01/02 00:10:18;;;;;;;2.90;1.50;;;;;;;13.42;100.00;98374.25;15308149;19;20018;-79
2023/01/02 00:15:42;;;;;;;2.33;1.40;;;;;;;13.45;100.00;98378.44;15316008;19;20033;-79
2023/01/02 00:21:11;;;;;;;1.52;1.40;;;;;;;13.48;100.00;98373.50;15290897;19;20406;-81
2023/01/02 00:26:39;;;;;;;1.67;1.50;;;;;;;13.51;100.00;98378.56;15291604;19;20015;-82
2023/01/02 00:32:05;;;;;;;1.48;1.20;;;;;;;13.58;100.00;98367.84;15297978;19;20031;-79
2023/01/02 00:37:29;;;;;;;1.77;1.50;;;;;;;13.60;100.00;98359.53;15310063;19;20096;-79
2023/01/02 00:42:57;;;;;;;1.50;1.40;;;;;;;13.60;100.00;98354.97;15299415;19;20010;-79
2023/01/02 00:48:21;;;;;;;2.10;1.25;;;;;;;13.66;100.00;98345.28;15304606;19;20039;-80
2023/01/02 00:53:47;;;;;;;1.58;1.45;;;;;;;13.63;100.00;98348.34;15301163;19;20006;-80
2023/01/02 00:59:14;;;;;;;1.90;1.48;;;;;;;13.62;100.00;98352.94;15305283;19;20400;-80
2023/01/02 01:04:41;;;;;;;2.38;1.40;;;;;;;13.63;100.00;98364.59;15296317;19;20010;-80
2023/01/02 01:10:06;;;;;;;1.60;1.50;;;;;;;13.59;100.00;98363.25;15306864;19;20011;-81
2023/01/02 01:15:34;;;;;;;2.60;1.50;;;;;;;13.63;100.00;98348.34;15296696;19;20013;-80
2023/01/02 01:20:58;;;;;;;2.03;1.40;;;;;;;13.64;100.00;98358.16;15303111;19;20074;-79
2023/01/02 01:26:23;;;;;;;1.70;1.40;;;;;;;13.65;100.00;98365.25;15298805;19;20535;-81
2023/01/02 01:31:50;;;;;;;2.30;1.40;;;;;;;13.66;100.00;98365.06;15300229;19;20051;-82
2023/01/02 01:37:15;;;;;;;1.77;1.40;;;;;;;13.67;100.00;98366.75;15294304;19;20027;-79
2023/01/02 01:42:39;;;;;;;3.40;1.23;;;;;;;13.68;100.00;98345.94;15298276;19;20028;-79
2023/01/02 01:48:11;;;;;;;2.45;1.38;;;;;;;13.67;100.00;98349.69;15297280;19;20018;-81
2023/01/02 01:53:38;;;;;;;1.20;1.10;;;;;;;13.63;100.00;98340.22;15297412;19;20021;-80
2023/01/02 01:59:03;;;;;;;3.42;1.30;;;;;;;13.59;100.00;98328.94;15306779;19;20015;-80
2023/01/02 02:04:30;;;;;;;1.60;1.25;;;;;;;13.58;100.00;98323.72;15300591;19;20022;-80
2023/01/02 02:09:59;;;;;;;2.15;1.30;;;;;;;13.54;100.00;98313.25;15302248;19;20006;-80
2023/01/02 02:15:33;;;;;;;3.60;1.10;;;;;;;13.56;100.00;98310.34;15290059;19;20014;-79
2023/01/02 02:21:07;;;;;;;2.17;1.30;;;;;;;13.56;100.00;98304.94;15297823;19;20318;-78
2023/01/02 02:27:02;;;;;;;1.58;1.27;;;;;;;13.54;100.00;98306.97;15302110;19;20014;-79
2023/01/02 02:32:38;;;;;;;1.67;1.23;;;;;;;13.55;100.00;98308.66;15302655;19;20472;-79
2023/01/02 02:38:08;;;;;;;2.38;1.17;;;;;;;13.56;100.00;98303.09;15292413;19;20130;-80
2023/01/02 02:43:42;;;;;;;2.20;1.33;;;;;;;13.60;100.00;98297.28;15302695;19;20018;-81
2023/01/02 02:49:17;;;;;;;1.45;1.10;;;;;;;13.56;100.00;98281.44;15309006;19;20006;-83
2023/01/02 02:54:48;;;;;;;1.88;1.30;;;;;;;13.58;100.00;98285.81;15295867;19;20017;-80
2023/01/02 03:00:17;;;;;;;1.43;1.13;;;;;;;13.54;100.00;98282.63;15305187;19;20012;-79
2023/01/02 03:05:49;;;;;;;1.80;1.20;;;;;;;13.54;100.00;98279.91;15298483;19;20021;-80
2023/01/02 03:11:15;;;;;;;1.57;1.00;;;;;;;13.50;100.00;98282.16;15295871;19;20337;-80
2023/01/02 03:16:48;;;;;;;1.95;1.20;;;;;;;13.46;100.00;98282.69;15295168;19;20279;-79
2023/01/02 03:22:20;;;;;;;2.00;1.17;;;;;;;13.43;100.00;98285.75;15321471;19;20014;-79
2023/01/02 03:27:51;;;;;;;3.58;1.30;;;;;;;13.40;100.00;98287.84;15294767;19;20014;-79
2023/01/02 03:33:21;;;;;;;1.30;1.10;;;;;;;13.33;100.00;98294.13;15287189;19;20010;-80
2023/01/02 03:38:53;;;;;;;1.85;1.02;;;;;;;13.22;100.00;98284.56;15290610;19;20010;-82
2023/01/02 03:44:19;;;;;;;1.27;1.17;;;;;;;13.09;100.00;98272.50;15284780;19;20003;-80
2023/01/02 03:49:53;;;;;;;1.63;1.13;;;;;;;13.08;100.00;98278.09;15291842;19;20292;-80
2023/01/02 03:55:21;;;;;;;2.50;1.10;;;;;;;13.01;100.00;98274.41;15287339;19;20074;-81
2023/01/02 04:00:52;;;;;;;2.38;1.20;;;;;;;12.98;100.00;98261.28;15303741;19;20109;-79
2023/01/02 04:06:25;;;;;;;1.77;1.17;;;;;;;12.98;100.00;98258.56;15323252;19;20022;-82
2023/01/02 04:11:57;;;;;;;2.65;1.17;;;;;;;12.99;100.00;98252.13;15335344;19;20048;-79
2023/01/02 04:17:26;;;;;;;1.50;1.02;;;;;;;13.02;100.00;98249.06;15312893;19;20531;-79
2023/01/02 04:22:56;;;;;;;2.28;1.10;;;;;;;13.00;100.00;98245.69;15315504;19;20015;-79
2023/01/02 04:28:27;;;;;;;2.42;1.10;;;;;;;13.04;100.00;98252.41;15314338;19;20018;-79
2023/01/02 04:33:54;;;;;;;2.77;0.90;;;;;;;13.05;100.00;98249.53;15315199;19;20029;-80
2023/01/02 04:39:21;;;;;;;2.92;1.10;;;;;;;13.07;100.00;98250.19;15315209;19;20359;-79
2023/01/02 04:44:49;;;;;;;1.90;1.10;;;;;;;13.10;100.00;98249.00;15310349;19;20014;-81
2023/01/02 04:50:13;;;;;;;1.92;1.10;;;;;;;13.11;100.00;98248.00;15306192;19;20014;-79
2023/01/02 04:55:38;;;;;;;1.77;1.05;;;;;;;13.12;100.00;98265.88;15311120;19;20374;-78
2023/01/02 05:01:10;;;;;;;2.15;1.00;;;;;;;13.11;100.00;98261.50;15313168;19;20018;-78
2023/01/02 05:06:35;;;;;;;1.88;1.02;;;;;;;13.09;100.00;98250.03;15317826;19;20010;-79
2023/01/02 05:11:59;;;;;;;3.03;1.13;;;;;;;13.09;100.00;98266.25;15318668;19;20030;-80
2023/01/02 05:17:27;;;;;;;1.80;1.00;;;;;;;13.05;100.00;98271.16;15315934;19;20472;-80
2023/01/02 05:28:29;;;;;;;1.90;1.00;;;;;;;12.96;100.00;98261.44;15320135;19;20050;-81
2023/01/02 05:34:00;;;;;;;1.40;1.08;;;;;;;12.90;100.00;98268.41;15317425;19;20010;-78
2023/01/02 05:39:24;;;;;;;2.55;1.17;;;;;;;12.83;100.00;98278.25;15322619;19;20753;-79
2023/01/02 05:44:50;;;;;;;1.58;1.20;;;;;;;12.88;100.00;98283.97;15317053;19;20018;-80
2023/01/02 05:50:18;;;;;;;1.25;1.13;;;;;;;12.97;100.00;98287.47;15313677;19;20014;-80
2023/01/02 05:55:43;;;;;;;1.05;0.93;;;;;;;13.00;100.00;98278.13;15316172;19;20045;-82
2023/01/02 06:01:12;;;;;;;2.80;1.00;;;;;;;13.03;100.00;98266.97;15324273;19;20022;-81
2023/01/02 06:06:41;;;;;;;2.40;1.15;;;;;;;13.09;100.00;98255.44;15332263;19;20053;-79
2023/01/02 06:12:06;;;;;;;1.33;1.10;;;;;;;13.11;100.00;98250.69;15301882;19;20542;-77
2023/01/02 06:17:30;;;;;;;2.05;1.00;;;;;;;13.17;100.00;98263.47;15313094;19;20103;-80
2023/01/02 06:22:58;;;;;;;2.17;1.10;;;;;;;13.21;100.00;98270.22;15320718;19;20011;-80
2023/01/02 06:28:23;;;;;;;1.67;1.05;;;;;;;13.21;100.00;98275.63;15332481;19;20014;-77
2023/01/02 06:33:49;;;;;;;1.33;1.00;;;;;;;13.19;100.00;98283.06;15341892;19;20019;-79
2023/01/02 06:39:16;;;;;;;3.67;1.08;;;;;;;13.18;100.00;98280.53;15311641;19;20011;-78
2023/01/02 06:44:41;;;;;;;2.20;1.20;;;;;;;13.21;100.00;98283.75;15306522;19;20014;-79
2023/01/02 06:50:06;;;;;;;1.83;1.15;;;;;;;13.16;100.00;98290.72;15310980;19;20014;-80
2023/01/02 06:55:34;;;;;;;2.75;1.15;;;;;;;13.04;100.00;98287.56;15307351;19;20018;-79
2023/01/02 07:01:04;;;;;;;3.40;1.23;;;;;;;12.92;100.00;98306.91;15318806;19;20010;-78
2023/01/02 07:06:30;;;;;;;2.10;1.23;;;;;;;12.79;100.00;98306.66;15318567;19;20014;-78
2023/01/02 07:11:57;;;;;;;2.88;1.20;;;;;;;12.70;100.00;98310.44;15309920;19;20046;-80
2023/01/02 07:17:22;;;;;;;2.72;1.10;;;;;;;12.63;100.00;98305.75;15316518;19;20027;-79
2023/01/02 07:22:51;;;;;;;1.33;1.00;;;;;;;12.56;100.00;98320.16;15310757;19;20081;-80
2023/01/02 07:28:19;;;;;;;2.50;1.05;;;;;;;12.41;100.00;98320.91;15302517;19;20023;-82
2023/01/02 07:33:44;;;;;;;1.80;1.20;;;;;;;12.42;100.00;98319.03;15305299;19;20011;-83
2023/01/02 07:39:08;;;;;;;2.15;1.08;;;;;;;12.41;100.00;98328.13;15326732;19;20010;-82
2023/01/02 07:44:35;;;;;;;3.25;1.10;;;;;;;12.42;100.00;98336.09;15311545;19;20059;-79
2023/01/02 07:50:00;;;;;;;1.50;1.10;;;;;;;12.41;100.00;98331.69;15321034;19;20752;-81
2023/01/02 07:55:26;;;;;;;1.27;1.00;;;;;;;12.41;100.00;98322.72;15322834;19;20776;-82
2023/01/02 08:00:53;;;;;;;1.30;1.10;;;;;;;12.41;100.00;98328.13;15313302;19;20036;-80
2023/01/02 08:06:23;;;;;;;3.35;1.30;;;;;;;12.42;100.00;98332.53;15304701;19;20025;-83
2023/01/02 08:11:47;;;;;;;1.50;1.10;;;;;;;12.41;100.00;98339.81;15310653;19;20360;-80
2023/01/02 08:17:14;;;;;;;2.88;1.30;;;;;;;12.46;100.00;98334.72;15308782;19;20047;-80
2023/01/02 08:22:39;;;;;;;3.42;1.35;;;;;;;12.55;100.00;98315.78;15309004;19;20683;-79
2023/01/02 08:28:04;;;;;;;2.20;1.25;;;;;;;12.59;100.00;98341.41;15316710;19;20581;-82
2023/01/02 08:33:31;;;;;;;2.25;1.10;;;;;;;12.68;100.00;98339.50;15357969;19;20010;-81
2023/01/02 08:38:56;;;;;;;3.50;1.20;;;;;;;12.71;100.00;98347.28;15370525;19;20041;-77
2023/01/02 08:44:20;;;;;;;1.60;1.10;;;;;;;12.73;100.00;98340.66;15366684;19;20010;-79
2023/01/02 08:49:47;;;;;;;1.35;0.95;;;;;;;12.77;100.00;98354.66;15359510;19;20002;-82
2023/01/02 08:55:14;;;;;;;1.80;1.13;;;;;;;12.79;100.00;98352.63;15309086;19;20006;-78
2023/01/02 09:00:39;;;;;;;2.53;1.17;;;;;;;12.86;100.00;98342.81;15316479;19;20018;-78
2023/01/02 09:06:06;;;;;;;3.13;1.20;;;;;;;13.00;100.00;98345.72;15307279;19;20475;-79
2023/01/02 09:11:40;;;;;;;1.58;1.20;;;;;;;13.14;100.00;98347.69;15317278;19;20025;-79
2023/01/02 09:17:05;;;;;;;1.83;1.13;;;;;;;13.28;100.00;98340.66;15321841;19;20503;-81
2023/01/02 09:22:32;;;;;;;2.97;1.13;;;;;;;13.36;100.00;98347.84;15318775;19;20357;-82
2023/01/02 09:27:57;;;;;;;2.35;1.25;;;;;;;13.42;100.00;98349.88;15319903;19;20078;-82
2023/01/02 09:33:22;;;;;;;2.45;1.10;;;;;;;13.47;100.00;98339.34;15324484;19;20022;-81
2023/01/02 09:38:49;;;;;;;2.15;1.10;;;;;;;13.54;100.00;98329.47;15347532;19;20006;-78
2023/01/02 09:44:18;;;;;;;1.90;1.20;;;;;;;13.61;100.00;98345.84;15312538;19;20391;-81
2023/01/02 09:49:54;;;;;;;2.58;1.13;;;;;;;13.65;100.00;98343.59;15304738;19;20112;-81
2023/01/02 09:55:36;;;;;;;2.42;1.20;;;;;;;13.75;100.00;98348.75;15320253;19;20017;-80
2023/01/02 10:01:01;;;;;;;2.75;1.10;;;;;;;13.89;100.00;98349.81;15322992;19;20043;-79
2023/01/02 10:06:33;;;;;;;2.72;1.00;;;;;;;13.99;100.00;98320.59;15300430;19;20046;-79
2023/01/02 10:12:11;;;;;;;3.60;1.13;;;;;;;14.08;100.00;98324.88;15296281;19;20074;-82
2023/01/02 10:17:40;;;;;;;2.05;1.13;;;;;;;14.12;100.00;98342.44;15297463;19;20024;-81
2023/01/02 10:23:10;;;;;;;2.65;1.20;;;;;;;14.21;100.00;98329.66;15290247;19;20085;-79
2023/01/02 10:28:46;;;;;;;3.25;1.30;;;;;;;14.25;100.00;98343.66;15298430;19;20007;-82
2023/01/02 10:34:12;;;;;;;2.85;1.38;;;;;;;14.22;100.00;98335.91;15300032;19;20055;-79
2023/01/02 10:39:37;;;;;;;3.10;1.20;;;;;;;14.18;100.00;98333.56;15298626;19;20379;-79
2023/01/02 10:45:05;;;;;;;2.00;1.20;;;;;;;14.12;100.00;98338.88;15292286;19;20468;-82
2023/01/02 10:50:34;;;;;;;1.65;1.00;;;;;;;14.04;100.00;98350.69;15294584;19;20018;-81
2023/01/02 10:55:59;;;;;;;2.75;1.17;;;;;;;14.04;100.00;98366.94;15288613;19;20090;-83
2023/01/02 11:01:28;;;;;;;2.65;1.30;;;;;;;14.03;100.00;98346.28;15296498;19;20014;-80
2023/01/02 11:07:02;;;;;;;3.97;1.40;;;;;;;14.07;100.00;98342.16;15297360;19;20479;-80
2023/01/02 11:12:27;;;;;;;4.35;1.10;;;;;;;14.08;100.00;98330.28;15293980;19;20043;-83
2023/01/02 11:17:55;;;;;;;2.92;1.30;;;;;;;14.05;100.00;98325.28;15299170;19;20074;-82
2023/01/02 11:23:25;;;;;;;3.25;1.23;;;;;;;14.02;100.00;98333.75;15293928;19;20021;-80
2023/01/02 11:28:52;;;;;;;4.15;1.20;;;;;;;14.05;100.00;98324.41;15295114;19;20007;-82
2023/01/02 11:34:25;;;;;;;2.40;1.00;;;;;;;14.06;100.00;98336.94;15293964;19;20018;-79
2023/01/02 11:39:50;;;;;;;2.72;1.40;;;;;;;14.08;100.00;98337.59;15299171;19;20018;-82
2023/01/02 11:45:18;;;;;;;2.60;1.30;;;;;;;14.13;100.00;98333.31;15289005;19;20015;-80
2023/01/02 11:50:46;;;;;;;2.83;1.50;;;;;;;14.14;100.00;98332.28;15294383;19;20401;-82
2023/01/02 11:56:16;;;;;;;3.03;1.40;;;;;;;14.07;100.00;98334.03;15291243;19;20011;-82
2023/01/02 12:01:58;;;;;;;2.65;1.25;;;;;;;14.08;100.00;98340.31;15293711;19;20015;-82
2023/01/02 12:07:40;;;;;;;5.25;1.20;;;;;;;14.08;100.00;98333.00;15297853;19;20010;-80
2023/01/02 12:13:22;;;;;;;3.28;1.30;;;;;;;14.19;100.00;98342.56;15295640;19;20351;-80
2023/01/02 12:19:09;;;;;;;3.55;1.42;;;;;;;14.27;100.00;98323.47;15296707;19;20033;-81
2023/01/02 12:25:02;;;;;;;4.30;1.50;;;;;;;14.34;100.00;98323.56;15308104;19;20047;-79
2023/01/02 12:30:31;;;;;;;2.72;1.33;;;;;;;14.40;100.00;98316.56;15313000;19;20014;-81
2023/01/02 12:36:26;;;;;;;6.03;1.60;;;;;;;14.44;100.00;98304.31;15308725;19;20039;-81
2023/01/02 12:42:04;;;;;;;2.72;1.20;;;;;;;14.51;100.00;98332.34;15314290;19;20018;-82
2023/01/02 12:48:03;;;;;;;5.03;1.30;;;;;;;14.56;100.00;98327.19;15337785;19;20018;-81
2023/01/02 12:53:54;;;;;;;3.28;1.35;;;;;;;14.55;100.00;98335.50;15301977;19;20022;-81
2023/01/02 13:00:11;;;;;;;3.25;1.40;;;;;;;14.55;100.00;98344.50;15306312;19;20018;-79
2023/01/02 13:05:45;;;;;;;6.75;1.30;;;;;;;14.56;100.00;98335.34;15300944;19;20014;-80
2023/01/02 13:11:12;;;;;;;4.65;1.40;;;;;;;14.51;100.00;98345.88;15312870;19;20031;-79
2023/01/02 13:16:38;;;;;;;6.13;1.40;;;;;;;14.62;100.00;98344.59;15311459;19;20011;-81
2023/01/02 13:22:19;;;;;;;3.92;1.40;;;;;;;14.79;100.00;98356.91;15302022;19;20031;-80
2023/01/02 13:27:43;;;;;;;4.73;1.53;;;;;;;14.86;100.00;98351.56;15312433;19;20028;-80
2023/01/02 13:33:22;;;;;;;4.47;1.42;;;;;;;14.69;100.00;98369.09;15319691;19;20074;-81
2023/01/02 13:38:53;;;;;;;4.63;1.60;;;;;;;14.53;100.00;98370.09;15309102;19;20014;-85
2023/01/02 13:44:19;;;;;;;5.25;1.50;;;;;;;14.39;100.00;98364.53;15309303;19;20015;-82
2023/01/02 13:49:44;;;;;;;4.28;1.50;;;;;;;14.35;100.00;98360.50;15318802;19;20039;-80
2023/01/02 13:55:34;;;;;;;4.93;1.35;;;;;;;14.21;100.00;98372.16;15304550;19;20017;-80
2023/01/02 14:01:00;;;;;;;4.13;1.40;;;;;;;14.15;100.00;98369.19;15306186;19;20006;-85
2023/01/02 14:06:33;;;;;;;3.78;1.25;;;;;;;14.03;100.00;98379.63;15293120;19;20370;-85
2023/01/02 14:12:03;;;;;;;5.18;1.38;;;;;;;13.99;100.00;98385.59;15296097;19;20598;-83
2023/01/02 14:17:42;;;;;;;5.97;1.40;;;;;;;13.93;100.00;98399.88;15309644;19;20010;-87
2023/01/02 14:23:10;;;;;;;5.03;1.48;;;;;;;13.91;100.00;98400.03;15308559;19;20288;-81
2023/01/02 14:28:41;;;;;;;5.95;1.38;;;;;;;13.83;100.00;98405.53;15299039;19;20014;-80
2023/01/02 14:34:05;;;;;;;4.13;1.43;;;;;;;13.76;100.00;98427.09;15301216;19;20018;-80
2023/01/02 14:39:32;;;;;;;3.28;1.27;;;;;;;13.69;100.00;98440.50;15302873;19;20014;-78
2023/01/02 14:45:06;;;;;;;4.50;1.38;;;;;;;13.56;100.00;98456.50;15295968;19;20007;-79
2023/01/02 14:50:35;;;;;;;8.73;1.52;;;;;;;13.40;100.00;98452.91;15296920;19;20022;-80
2023/01/02 14:56:06;;;;;;;3.72;1.27;;;;;;;13.30;100.00;98457.66;15297251;19;20483;-81
2023/01/02 15:07:10;;;;;;;6.60;1.30;;;;;;;13.21;100.00;98465.00;15299671;19;20015;-82
2023/01/02 15:18:24;;;;;;;5.03;1.38;;;;;;;13.08;100.00;98468.25;15296857;19;20039;-81
2023/01/02 15:23:52;;;;;;;3.80;1.20;;;;;;;13.13;100.00;98477.69;15292329;19;20042;-79
2023/01/02 15:29:27;;;;;;;5.93;1.40;;;;;;;13.14;100.00;98485.63;15297226;19;20633;-81
2023/01/02 15:34:54;;;;;;;4.18;1.15;;;;;;;13.15;100.00;98491.91;15297166;19;20007;-85
2023/01/02 15:40:26;;;;;;;3.80;1.20;;;;;;;13.08;100.00;98502.56;15315181;19;20054;-83
2023/01/02 15:45:55;;;;;;;3.10;1.15;;;;;;;12.99;100.00;98504.47;15300162;19;20019;-83
2023/01/02 15:51:24;;;;;;;3.72;1.13;;;;;;;12.90;100.00;98519.03;15299629;19;20034;-83
2023/01/02 15:57:20;;;;;;;4.88;1.25;;;;;;;12.83;100.00;98528.84;15343038;19;20010;-81
2023/01/02 16:02:46;;;;;;;2.85;1.10;;;;;;;12.77;100.00;98541.19;15324890;19;21222;-81
2023/01/02 16:08:13;;;;;;;2.30;1.00;;;;;;;12.73;100.00;98531.75;15324310;19;20018;-80
2023/01/02 16:19:29;;;;;;;3.53;1.17;;;;;;;12.76;100.00;98547.59;15313781;19;20074;-83
2023/01/02 16:25:02;;;;;;;2.77;1.20;;;;;;;12.76;100.00;98548.47;15317909;19;20027;-82
2023/01/02 16:30:39;;;;;;;4.00;1.20;;;;;;;12.73;100.00;98565.03;15318303;19;20014;-86
2023/01/02 16:36:10;;;;;;;2.97;1.10;;;;;;;12.69;100.00;98565.53;15303695;19;20638;-83
2023/01/02 16:47:45;;;;;;;2.70;1.17;;;;;;;12.62;100.00;98563.53;15317600;19;20015;-80
2023/01/02 16:53:24;;;;;;;4.15;1.20;;;;;;;12.59;100.00;98563.00;15306720;19;20007;-79
2023/01/02 16:58:55;;;;;;;3.05;1.20;;;;;;;12.52;100.00;98562.88;15323011;19;20006;-82
2023/01/02 17:04:13;;;;;;;2.30;1.15;;;;;;;12.50;100.00;98573.00;15318681;19;20015;-83
2023/01/02 17:09:39;;;;;;;2.97;1.05;;;;;;;12.46;100.00;98568.94;15312231;19;20022;-84
2023/01/02 17:15:06;;;;;;;1.92;0.85;;;;;;;12.44;100.00;98557.47;15312123;19;20038;-84
2023/01/02 17:20:31;;;;;;;3.30;1.20;;;;;;;12.43;100.00;98577.38;15310260;19;20010;-83
2023/01/02 17:26:00;;;;;;;2.67;1.00;;;;;;;12.37;100.00;98575.38;15299552;19;20011;-83
2023/01/02 17:31:28;;;;;;;2.67;1.08;;;;;;;12.33;100.00;98581.09;15306454;19;20010;-82
2023/01/02 17:36:55;;;;;;;3.95;1.42;;;;;;;12.30;100.00;98577.91;15312911;19;20074;-84
2023/01/02 17:42:22;;;;;;;2.92;1.00;;;;;;;12.29;100.00;98585.16;15327460;19;20018;-80
2023/01/02 17:47:49;;;;;;;2.08;0.90;;;;;;;12.25;100.00;98574.84;15314120;19;20023;-83
2023/01/02 17:53:30;;;;;;;1.98;0.73;;;;;;;12.20;100.00;98580.75;15300196;19;20051;-84
2023/01/02 17:58:57;;;;;;;4.05;1.02;;;;;;;12.13;100.00;98590.56;15300537;19;20054;-83
2023/01/02 18:04:24;;;;;;;1.80;1.00;;;;;;;12.12;100.00;98596.97;15299271;19;20019;-82
2023/01/02 18:09:49;;;;;;;2.33;1.10;;;;;;;12.13;100.00;98582.47;15298688;19;20031;-81
2023/01/02 18:15:30;;;;;;;2.05;0.98;;;;;;;11.80;100.00;98606.66;15292601;19;20011;-80
2023/01/02 18:20:58;;;;;;;3.22;0.80;;;;;;;11.17;100.00;98631.19;15302787;19;20014;-80
2023/01/02 18:26:29;;;;;;;0.98;0.52;;;;;;;10.70;100.00;98656.66;15296288;19;20014;-80
2023/01/02 18:31:55;;;;;;;0.70;0.30;;;;;;;10.11;100.00;98697.50;15299691;19;20030;-81
2023/01/02 18:37:26;;;;;;;1.48;0.47;;;;;;;9.58;100.00;98700.91;15313565;19;20004;-85
2023/01/02 18:43:01;;;;;;;1.07;0.50;;;;;;;9.30;100.00;98765.38;15313277;19;20015;-85
2023/01/02 18:48:29;;;;;;;0.70;0.50;;;;;;;9.03;100.00;98802.75;15325325;19;20007;-89
2023/01/02 18:54:04;;;;;;;0.73;0.50;;;;;;;8.89;100.00;98820.13;15311441;19;20428;-88
2023/01/02 18:59:32;;;;;;;1.35;0.50;;;;;;;8.77;100.00;98851.69;15316552;19;20030;-85
2023/01/02 19:05:03;;;;;;;0.98;0.50;;;;;;;8.72;100.00;98877.25;15333566;19;20015;-91
2023/01/02 19:10:37;;;;;;;0.87;0.30;;;;;;;8.70;100.00;98876.53;15353640;19;20010;-88
2023/01/02 19:16:47;;;;;;;0.50;0.50;;;;;;;8.71;100.00;98880.94;15317825;19;20010;-87
2023/01/02 19:22:19;;;;;;;0.50;0.30;;;;;;;8.63;100.00;98866.38;15311037;19;20014;-87
2023/01/02 19:27:48;;;;;;;1.87;0.40;;;;;;;8.63;100.00;98873.56;15311288;19;20410;-87
2023/01/02 19:44:41;;;;;;;0.47;0.40;;;;;;;8.55;100.00;98914.53;15283734;19;20010;-59
2023/01/02 19:50:07;;;;;;;1.85;0.47;;;;;;;8.51;100.00;98926.53;15264557;19;20772;-57
2023/01/02 19:55:35;;;;;;;0.43;0.40;;;;;;;8.54;100.00;98922.72;15274901;19;20102;-58
2023/01/02 20:01:03;;;;;;;0.50;0.43;;;;;;;8.54;100.00;98941.53;15273931;19;20018;-57
2023/01/02 20:06:29;;;;;;;0.90;0.50;;;;;;;8.52;100.00;98936.31;15271311;19;20035;-57
2023/01/02 20:17:35;;;;;;;0.45;0.40;;;;;;;8.42;100.00;98938.03;15275351;19;20017;-57
2023/01/02 20:23:00;;;;;;;0.65;0.45;;;;;;;8.32;100.00;98946.91;15270264;19;20090;-57
2023/01/02 20:28:25;;;;;;;0.80;0.60;;;;;;;8.32;100.00;98968.38;15274971;19;20783;-58
2023/01/02 20:33:52;;;;;;;0.98;0.60;;;;;;;8.35;100.00;98971.78;15274794;19;20087;-55
2023/01/02 20:39:19;;;;;;;0.55;0.50;;;;;;;8.41;100.00;98984.69;15267096;19;20023;-56
2023/01/02 20:44:43;;;;;;;1.77;0.40;;;;;;;8.46;100.00;98982.44;15280004;19;20017;-57
2023/01/02 20:50:11;;;;;;;0.50;0.50;;;;;;;8.49;100.00;98992.97;15288826;19;20482;-58
2023/01/02 20:55:37;;;;;;;0.70;0.50;;;;;;;8.55;100.00;99008.53;15282426;19;20015;-59
2023/01/02 21:01:03;;;;;;;0.50;0.50;;;;;;;8.62;100.00;99023.13;15282730;19;20011;-54
2023/01/02 21:06:30;;;;;;;0.50;0.50;;;;;;;8.49;100.00;99049.34;15288099;19;20022;-57
2023/01/02 21:11:55;;;;;;;0.63;0.50;;;;;;;8.45;100.00;99042.50;15282616;19;20078;-58
2023/01/02 21:17:19;;;;;;;0.93;0.50;;;;;;;8.34;100.00;99054.19;15269194;19;20082;-61
2023/01/02 21:22:47;;;;;;;0.30;0.30;;;;;;;8.25;100.00;99038.84;15288034;19;20097;-61
2023/01/02 21:28:13;;;;;;;0.30;0.30;;;;;;;8.22;100.00;99037.28;15278474;19;20686;-62
2023/01/02 21:33:38;;;;;;;0.50;0.50;;;;;;;8.10;100.00;99043.69;15287710;19;20018;-61
2023/01/02 21:39:05;;;;;;;1.23;0.60;;;;;;;8.04;100.00;99041.53;15277416;19;20383;-58
2023/01/02 21:44:36;;;;;;;0.77;0.50;;;;;;;7.94;100.00;99050.34;15273291;19;20022;-57
2023/01/02 21:50:01;;;;;;;0.43;0.40;;;;;;;7.86;100.00;99061.75;15284745;19;20616;-60
2023/01/02 21:55:29;;;;;;;0.57;0.30;;;;;;;7.79;100.00;99059.69;15281988;19;20031;-60
2023/01/02 22:00:55;;;;;;;0.80;0.40;;;;;;;7.75;100.00;99060.91;15280996;19;20031;-60
2023/01/02 22:06:20;;;;;;;0.30;0.30;;;;;;;7.70;100.00;99067.50;15287198;19;20082;-60
2023/01/02 22:11:57;;;;;;;0.40;0.40;;;;;;;7.60;100.00;99069.25;15282104;19;20025;-60
2023/01/02 22:17:21;;;;;;;0.68;0.50;;;;;;;7.53;100.00;99074.25;15284577;19;20016;-57
2023/01/02 22:22:46;;;;;;;0.55;0.50;;;;;;;7.44;100.00;99077.69;15283285;19;20022;-56
2023/01/02 22:28:13;;;;;;;0.40;0.40;;;;;;;7.35;100.00;99092.69;15281907;19;20035;-54
2023/01/02 22:33:38;;;;;;;0.90;0.40;;;;;;;7.35;100.00;99094.53;15278797;19;20074;-57
2023/01/02 22:39:04;;;;;;;0.40;0.40;;;;;;;7.32;100.00;99118.91;15281993;19;20025;-55
2023/01/02 22:44:54;;;;;;;;;;;;;;;7.22;100.00;99119.66;15274160;19;20025;-58
2023/01/02 22:50:23;;;;;;;0.52;0.30;;;;;;;7.23;100.00;99116.00;15281448;19;19921;-58
2023/01/02 22:55:48;;;;;;;0.40;0.40;;;;;;;7.25;100.00;99123.91;15281166;19;20094;-59
2023/01/02 23:01:19;;;;;;;0.75;0.50;;;;;;;7.18;100.00;99141.47;15271603;19;20022;-58
2023/01/02 23:06:43;;;;;;;0.23;0.23;;;;;;;7.28;100.00;99123.66;15281686;19;20010;-58
2023/01/02 23:12:28;;;;;;;0.40;0.30;;;;;;;7.28;100.00;99112.94;15278147;19;20701;-59
2023/01/02 23:23:33;;;;;;;0.85;0.45;;;;;;;7.08;100.00;99122.56;15276273;19;20613;-61
2023/01/02 23:28:57;;;;;;;0.73;0.35;;;;;;;6.93;100.00;99122.81;15275196;19;20022;-61
2023/01/02 23:34:30;;;;;;;0.77;0.50;;;;;;;7.03;100.00;99119.41;15273574;19;20047;-58
2023/01/02 23:39:56;;;;;;;0.40;0.40;;;;;;;7.19;100.00;99119.03;15281113;19;20476;-58
2023/01/02 23:45:27;;;;;;;0.95;0.45;;;;;;;7.05;100.00;99129.03;15276100;19;20078;-58
2023/01/02 23:51:00;;;;;;;0.40;0.40;;;;;;;6.98;100.00;99138.53;15275989;19;20015;-59
2023/01/02 23:56:30;;;;;;;0.55;0.40;;;;;;;7.09;100.00;99146.56;15281594;19;20018;-58
